Clinton, OK

12:17 PM CDT on June 23, 2017 (GMT -0500)
Clinton Municipal | | Change Station

Elev 1614 ft 35.54 °N, 98.93 °W | Updated -1063 second ago

Scattered Clouds
Scattered Clouds
86 °F
Feels Like 87 °F
N
18
Wind Variable Wind from NNE
Gusts 24 mph

Today
High -- | Low -- °F
--% Chance of Precip.
Yesterday
High -- | Low -- °F
Precip. -- in
Pressure 29.94 in
Visibility 10.0 miles
Clouds Scattered Clouds 4400 ft
Heat Index 87 °F
Dew Point 63 °F
Humidity 45%
Rainfall 0.00 in
Snow Depth Not available.
6:21 AM 8:54 PM
Waning Crescent, 0% visible
METAR KCLK 231735Z AUTO 02016G21KT 10SM SCT044 30/17 A2994 RMK AO2 LTG DSNT NW
Pressure 29.94 in
Visibility 10.0 miles
Clouds Scattered Clouds 4400 ft
Heat Index 87 °F
Dew Point 63 °F
Humidity 45%
Rainfall 0.00 in
Snow Depth Not available.
6:21 AM 8:54 PM
Waning Crescent, 0% visible
METAR KCLK 231735Z AUTO 02016G21KT 10SM SCT044 30/17 A2994 RMK AO2 LTG DSNT NW

Get Severe Weather Alerts

Thanks for signing up!

Be on the lookout for a verification email in your inbox.

You'll start receiving the daily forecast at 6 AM.

×

10-Day Weather Forecast

Almanac

Astronomy

Jun. 23, 2017 Rise Set
Actual Time
Civil Twilight
Nautical Twilight
Astronomical Twilight
Moon
Length of Visible Light
Length of Day
Tomorrow will be .
, % of the Moon is Illuminated

Today's Extremes

State Highs State Lows

Community

WunderPhotos

Category 6

Welcome to Category 6. This is the collective home for Weather Underground's featured writeups by Dr. Jeff Masters (right), Bob Henson (left), Chris Burt, and other regular contributors.

Nearby

Air Quality

  Air Quality AQ Index Pollutant
Not available.

Snow Depth

Station Depth Elevation

Earthquake Activity

City Distance Mag. Time & Date
Minimum magnitude displayed is 2.5.

Coastal Water Temperatures

Place Temperature

Stations

Nearby Weather Stations

Station Location Temp. Windchill Dew Point Humidity Wind Precip. Elev Updated Type
                   

Watches & Warnings

There are currently no watches in effect.